createdAt,value
2022-12-20T00:01:32.059Z,19.53
2022-12-20T00:04:03.562Z,19.60
2022-12-20T00:06:31.122Z,20.23
2022-12-20T00:09:00.464Z,21.30
2022-12-20T00:11:28.767Z,21.70
2022-12-20T00:13:56.319Z,20.50
2022-12-20T00:16:26.217Z,21.30
2022-12-20T00:18:56.773Z,21.70
2022-12-20T00:21:24.594Z,20.40
2022-12-20T00:23:53.071Z,22.03
2022-12-20T00:26:23.280Z,20.60
2022-12-20T00:28:51.249Z,22.43
2022-12-20T00:31:20.531Z,20.50
2022-12-20T00:33:49.438Z,24.13
2022-12-20T00:36:18.157Z,19.80
2022-12-20T00:38:48.100Z,21.70
2022-12-20T00:41:18.925Z,20.57
2022-12-20T00:43:46.398Z,21.77
2022-12-20T00:46:15.250Z,19.40
2022-12-20T00:48:42.707Z,21.43
2022-12-20T00:51:15.760Z,20.30
2022-12-20T00:53:43.704Z,20.40
2022-12-20T00:56:12.479Z,20.10
2022-12-20T00:58:41.309Z,20.77
2022-12-20T01:01:21.635Z,19.80
2022-12-20T01:03:49.961Z,18.13
2022-12-20T01:06:18.253Z,16.10
2022-12-20T01:08:45.964Z,17.50
2022-12-20T01:11:16.231Z,15.60
2022-12-20T01:13:46.547Z,18.67
2022-12-20T01:16:25.867Z,19.63
2022-12-20T01:18:54.385Z,18.70
2022-12-20T01:21:24.015Z,19.40
2022-12-20T01:23:51.719Z,18.70
2022-12-20T01:26:22.295Z,17.60
2022-12-20T01:28:54.313Z,19.10
2022-12-20T01:31:22.057Z,18.73
2022-12-20T01:33:50.797Z,15.60
2022-12-20T01:36:27.197Z,16.27
2022-12-20T01:39:00.252Z,15.47
2022-12-20T01:41:28.264Z,18.50
2022-12-20T01:44:07.341Z,16.00
2022-12-20T01:46:39.691Z,15.40
2022-12-20T01:49:30.621Z,19.47
2022-12-20T01:52:03.718Z,17.90
2022-12-20T01:54:32.651Z,22.00
2022-12-20T01:57:06.223Z,19.43
2022-12-20T01:59:35.625Z,18.10
2022-12-20T02:02:07.579Z,16.37
2022-12-20T02:04:35.191Z,17.63
2022-12-20T02:07:03.535Z,18.30
2022-12-20T02:09:32.492Z,17.60
2022-12-20T02:12:10.990Z,15.97
2022-12-20T02:14:44.509Z,17.27
2022-12-20T02:17:30.567Z,15.00
2022-12-20T02:20:13.106Z,15.90
2022-12-20T02:22:55.939Z,17.20
2022-12-20T02:25:53.108Z,15.77
2022-12-20T02:28:59.900Z,16.37
2022-12-20T02:31:33.400Z,13.67
2022-12-20T02:34:03.175Z,14.37
2022-12-20T02:36:30.650Z,13.87
2022-12-20T02:38:58.052Z,14.07
2022-12-20T02:41:30.734Z,14.30
2022-12-20T02:44:26.302Z,13.73
2022-12-20T02:46:55.184Z,14.50
2022-12-20T02:49:25.782Z,12.03
2022-12-20T02:51:54.158Z,12.93
2022-12-20T02:54:21.894Z,14.07
2022-12-20T02:57:16.510Z,11.50
2022-12-20T02:59:57.894Z,12.50
2022-12-20T03:02:26.744Z,12.57
2022-12-20T03:04:55.375Z,14.13
2022-12-20T03:07:23.652Z,13.40
2022-12-20T03:09:51.395Z,15.27
2022-12-20T03:12:18.759Z,13.70
2022-12-20T03:14:46.194Z,13.10
2022-12-20T03:17:15.564Z,13.63
2022-12-20T03:19:43.200Z,12.20
2022-12-20T03:22:11.520Z,12.07
2022-12-20T03:24:38.990Z,12.73
2022-12-20T03:27:11.367Z,12.60
2022-12-20T03:29:39.236Z,13.40
2022-12-20T03:32:06.939Z,12.47
2022-12-20T03:34:34.327Z,12.03
2022-12-20T03:37:02.359Z,11.60
2022-12-20T03:39:29.811Z,12.37
2022-12-20T03:41:57.328Z,11.27
2022-12-20T03:44:25.429Z,12.47
2022-12-20T03:46:53.057Z,12.13
2022-12-20T03:49:21.509Z,12.33
2022-12-20T03:51:51.468Z,10.27
2022-12-20T03:54:19.255Z,11.33
2022-12-20T03:57:07.327Z,10.57
2022-12-20T03:59:35.641Z,9.67
2022-12-20T04:02:04.656Z,10.07
2022-12-20T04:04:32.291Z,11.00
2022-12-20T04:06:59.692Z,11.00
2022-12-20T04:09:27.552Z,11.70
2022-12-20T04:12:01.906Z,10.50
2022-12-20T04:14:31.125Z,10.17
2022-12-20T04:16:58.730Z,11.40
2022-12-20T04:19:26.133Z,11.20
2022-12-20T04:22:02.640Z,11.93
2022-12-20T04:24:40.594Z,12.60
2022-12-20T04:27:19.418Z,12.57
2022-12-20T04:29:47.335Z,12.77
2022-12-20T04:32:17.290Z,13.00
2022-12-20T04:34:44.732Z,13.07
2022-12-20T04:37:12.100Z,10.80
2022-12-20T04:39:47.243Z,11.30
2022-12-20T04:42:24.929Z,11.07
2022-12-20T04:44:54.073Z,12.00
2022-12-20T04:47:25.342Z,10.10
2022-12-20T04:49:54.030Z,11.33
2022-12-20T04:52:47.133Z,11.60
2022-12-20T04:55:15.544Z,11.83
2022-12-20T04:57:42.925Z,9.77
2022-12-20T05:00:11.156Z,10.40
2022-12-20T05:02:43.563Z,9.17
2022-12-20T05:05:14.537Z,10.40
2022-12-20T05:07:48.150Z,12.00
2022-12-20T05:10:15.568Z,9.67
2022-12-20T05:12:44.720Z,10.50
2022-12-20T05:15:19.344Z,10.03
2022-12-20T05:17:46.909Z,10.03
2022-12-20T05:20:14.607Z,10.33
2022-12-20T05:23:02.896Z,10.73
2022-12-20T05:25:48.855Z,11.10
2022-12-20T05:28:17.169Z,9.40
2022-12-20T05:30:44.610Z,10.10
2022-12-20T05:33:12.887Z,11.77
2022-12-20T05:35:42.830Z,10.13
2022-12-20T05:38:13.026Z,10.70
2022-12-20T05:40:41.473Z,11.50
2022-12-20T05:43:09.982Z,10.87
2022-12-20T05:45:51.808Z,12.17
2022-12-20T05:48:25.889Z,11.47
2022-12-20T05:50:53.925Z,10.07
2022-12-20T05:53:30.149Z,11.63
2022-12-20T05:56:01.382Z,10.23
2022-12-20T05:58:34.764Z,11.40
2022-12-20T06:01:06.890Z,10.47
2022-12-20T06:03:39.067Z,11.03
2022-12-20T06:06:14.745Z,8.93
2022-12-20T06:08:45.369Z,12.07
2022-12-20T06:11:18.688Z,12.63
2022-12-20T06:13:51.356Z,11.33
2022-12-20T06:16:20.681Z,9.30
2022-12-20T06:18:48.452Z,9.73
2022-12-20T06:21:17.000Z,8.90
2022-12-20T06:23:45.163Z,8.50
2022-12-20T06:26:14.384Z,8.83
2022-12-20T06:28:52.702Z,10.57
2022-12-20T06:31:34.906Z,9.60
2022-12-20T06:34:02.380Z,10.93
2022-12-20T06:36:34.193Z,8.87
2022-12-20T06:39:07.603Z,10.33
2022-12-20T06:41:40.943Z,9.67
2022-12-20T06:44:08.552Z,11.87
2022-12-20T06:46:36.167Z,12.00
2022-12-20T06:49:04.213Z,10.53
2022-12-20T06:51:32.783Z,11.10
2022-12-20T06:54:01.145Z,10.37
2022-12-20T06:56:36.036Z,12.30
2022-12-20T06:59:09.512Z,12.23
2022-12-20T07:01:36.929Z,10.77
2022-12-20T07:04:04.719Z,11.80
2022-12-20T07:06:32.329Z,12.43
2022-12-20T07:09:00.134Z,13.13
2022-12-20T07:11:27.489Z,12.70
2022-12-20T07:13:58.845Z,10.00
2022-12-20T07:16:26.416Z,9.43
2022-12-20T07:18:55.423Z,10.27
2022-12-20T07:21:22.887Z,9.13
2022-12-20T07:23:50.253Z,9.00
2022-12-20T07:26:17.608Z,9.53
2022-12-20T07:28:45.075Z,9.30
2022-12-20T07:31:12.448Z,9.00
2022-12-20T07:33:40.356Z,9.60
2022-12-20T07:36:13.550Z,13.70
2022-12-20T07:38:40.867Z,11.13
2022-12-20T07:41:13.782Z,12.07
2022-12-20T07:43:41.333Z,11.30
2022-12-20T07:46:12.957Z,13.27
2022-12-20T07:48:40.446Z,12.27
2022-12-20T07:51:34.376Z,13.70
2022-12-20T07:54:11.477Z,14.17
2022-12-20T07:56:42.010Z,14.30
2022-12-20T07:59:12.247Z,12.70
2022-12-20T08:01:40.817Z,12.07
2022-12-20T08:04:13.432Z,11.90
2022-12-20T08:06:41.925Z,11.17
2022-12-20T08:09:12.611Z,10.73
2022-12-20T08:11:42.055Z,11.00
2022-12-20T08:14:10.141Z,10.77
2022-12-20T08:16:37.691Z,23.37
2022-12-20T08:19:05.295Z,21.17
2022-12-20T08:21:32.705Z,17.13
2022-12-20T08:24:00.088Z,19.10
2022-12-20T08:26:27.731Z,18.87
2022-12-20T08:28:55.593Z,17.20
2022-12-20T08:31:23.445Z,46.57
2022-12-20T08:33:50.910Z,23.70
2022-12-20T08:36:18.326Z,41.93
2022-12-20T08:38:45.697Z,18.23
2022-12-20T08:41:15.152Z,36.37
2022-12-20T08:43:43.563Z,66.37
2022-12-20T08:46:14.692Z,75.13
2022-12-20T08:48:42.103Z,45.10
2022-12-20T08:51:12.219Z,31.67
2022-12-20T08:53:40.051Z,34.90
2022-12-20T08:56:13.996Z,17.60
2022-12-20T08:58:42.736Z,13.80
2022-12-20T09:01:12.961Z,15.40
2022-12-20T09:03:41.040Z,13.17
2022-12-20T09:06:10.989Z,17.07
2022-12-20T09:08:39.564Z,15.80
2022-12-20T09:11:07.732Z,15.50
2022-12-20T09:13:43.118Z,15.33
2022-12-20T09:16:12.986Z,17.20
2022-12-20T09:18:40.531Z,16.30
2022-12-20T09:21:09.059Z,17.10
2022-12-20T09:23:37.590Z,14.07
2022-12-20T09:26:07.011Z,19.43
2022-12-20T09:28:34.754Z,12.80
2022-12-20T09:31:07.753Z,12.50
2022-12-20T09:33:36.544Z,8.43
2022-12-20T09:36:04.329Z,13.27
2022-12-20T09:38:32.801Z,12.47
2022-12-20T09:41:03.669Z,8.53
2022-12-20T09:43:32.061Z,14.50
2022-12-20T09:46:02.082Z,12.83
2022-12-20T09:48:39.831Z,11.93
2022-12-20T09:51:27.381Z,11.77
2022-12-20T09:54:31.230Z,9.73
2022-12-20T09:57:08.000Z,10.73
2022-12-20T09:59:40.391Z,10.97
2022-12-20T10:02:44.562Z,11.10
2022-12-20T10:05:02.196Z,12.60
2022-12-20T10:08:04.356Z,12.50
2022-12-20T10:10:41.713Z,13.37
2022-12-20T10:13:42.108Z,12.47
2022-12-20T10:16:18.973Z,58.10
2022-12-20T10:18:59.417Z,30.10
2022-12-20T10:21:33.638Z,38.57
2022-12-20T10:24:10.599Z,15.53
2022-12-20T10:26:37.961Z,30.47
2022-12-20T10:29:05.347Z,40.47
2022-12-20T10:31:32.741Z,16.73
2022-12-20T10:34:00.239Z,11.77
2022-12-20T10:36:29.680Z,15.63
2022-12-20T10:39:08.833Z,19.83
2022-12-20T10:41:45.015Z,16.27
2022-12-20T10:44:17.962Z,18.00
2022-12-20T10:46:48.427Z,18.60
2022-12-20T10:49:28.587Z,12.60
2022-12-20T10:52:01.886Z,12.63
2022-12-20T10:54:37.194Z,13.73
2022-12-20T10:57:28.158Z,11.33
2022-12-20T10:59:57.790Z,12.43
2022-12-20T11:02:37.099Z,13.27
2022-12-20T11:05:12.996Z,13.53
2022-12-20T11:10:41.935Z,13.07
2022-12-20T11:13:29.622Z,12.80
2022-12-20T11:16:01.531Z,12.60
2022-12-20T11:19:04.408Z,18.53
2022-12-20T11:21:58.969Z,16.37
2022-12-20T11:24:37.881Z,16.80
2022-12-20T11:28:04.517Z,18.10
2022-12-20T11:30:40.861Z,15.47
2022-12-20T11:33:14.396Z,15.90
2022-12-20T11:36:00.076Z,14.80
2022-12-20T11:38:30.760Z,15.20
2022-12-20T11:41:21.501Z,20.50
2022-12-20T11:44:28.928Z,22.70
2022-12-20T11:47:12.079Z,19.87
2022-12-20T11:50:12.033Z,15.60
2022-12-20T11:52:48.313Z,14.97
2022-12-20T11:55:33.345Z,15.07
2022-12-20T11:58:18.432Z,13.80
2022-12-20T12:01:02.089Z,14.30
2022-12-20T12:03:37.332Z,11.93
2022-12-20T12:06:21.401Z,14.83
2022-12-20T12:09:07.665Z,14.70
2022-12-20T12:14:48.128Z,22.10
2022-12-20T12:17:25.546Z,29.33
2022-12-20T12:19:55.895Z,21.50
2022-12-20T12:22:29.308Z,24.10
2022-12-20T12:24:59.572Z,17.90
2022-12-20T12:27:28.620Z,17.07
2022-12-20T12:29:57.926Z,17.77
2022-12-20T12:32:34.062Z,16.80
2022-12-20T12:35:07.335Z,12.57
2022-12-20T12:38:11.969Z,14.23
2022-12-20T12:40:53.169Z,12.87
2022-12-20T12:43:35.736Z,12.53
2022-12-20T12:46:14.247Z,10.97
2022-12-20T12:48:56.330Z,14.10
2022-12-20T12:51:28.460Z,16.77
2022-12-20T12:54:09.491Z,15.90
2022-12-20T12:56:44.607Z,16.37
2022-12-20T12:59:24.951Z,15.77
2022-12-20T13:01:56.002Z,17.13
2022-12-20T13:04:29.057Z,17.50
2022-12-20T13:06:58.077Z,18.10
2022-12-20T13:09:36.904Z,17.90
2022-12-20T13:12:36.898Z,20.93
2022-12-20T13:15:22.889Z,15.10
2022-12-20T13:18:01.628Z,20.80
2022-12-20T13:20:30.472Z,19.87
2022-12-20T13:23:12.910Z,20.00
2022-12-20T13:25:43.055Z,21.43
2022-12-20T13:28:23.538Z,21.87
2022-12-20T13:30:53.996Z,23.37
2022-12-20T13:33:40.080Z,22.00
2022-12-20T13:36:10.403Z,18.40
2022-12-20T13:38:39.849Z,18.50
2022-12-20T13:41:22.426Z,18.80
2022-12-20T13:43:51.576Z,17.17
2022-12-20T13:46:30.624Z,19.13
2022-12-20T13:49:03.046Z,14.40
2022-12-20T13:51:30.821Z,13.37
2022-12-20T13:53:58.774Z,17.10
2022-12-20T13:56:29.662Z,16.10
2022-12-20T13:58:58.802Z,14.30
2022-12-20T14:01:27.006Z,20.07
2022-12-20T14:03:54.913Z,18.40
2022-12-20T14:06:26.999Z,19.13
2022-12-20T14:08:54.731Z,11.00
2022-12-20T14:11:26.498Z,13.20
2022-12-20T14:13:59.187Z,11.00
2022-12-20T14:16:29.221Z,8.90
2022-12-20T14:19:07.983Z,7.80
2022-12-20T14:21:37.486Z,8.90
2022-12-20T14:24:05.171Z,7.47
2022-12-20T14:26:52.657Z,6.50
2022-12-20T14:29:25.152Z,11.30
2022-12-20T14:31:52.495Z,7.53
2022-12-20T14:34:33.099Z,19.47
2022-12-20T14:37:23.499Z,16.10
2022-12-20T14:40:09.651Z,19.37
2022-12-20T14:42:39.000Z,21.23
2022-12-20T14:45:10.770Z,21.40
2022-12-20T14:47:48.170Z,16.90
2022-12-20T14:50:24.795Z,16.53
2022-12-20T14:52:52.275Z,16.80
2022-12-20T14:55:33.137Z,18.20
2022-12-20T14:58:00.670Z,13.40
2022-12-20T15:00:30.675Z,15.40
2022-12-20T15:03:01.033Z,13.60
2022-12-20T15:05:43.549Z,15.60
2022-12-20T15:08:15.261Z,14.70
2022-12-20T15:10:49.834Z,14.53
2022-12-20T15:13:18.815Z,17.33
2022-12-20T15:15:46.389Z,18.47
2022-12-20T15:18:20.031Z,18.03
2022-12-20T15:20:50.021Z,15.97
2022-12-20T15:23:22.056Z,14.50
2022-12-20T15:25:50.073Z,14.93
2022-12-20T15:28:22.776Z,16.00
2022-12-20T15:30:51.849Z,30.13
2022-12-20T15:33:22.028Z,25.43
2022-12-20T15:35:49.730Z,26.30
2022-12-20T15:38:40.830Z,27.23
2022-12-20T15:41:17.878Z,27.73
2022-12-20T15:43:45.327Z,24.27
2022-12-20T15:46:12.983Z,17.57
2022-12-20T15:48:40.464Z,17.60
2022-12-20T15:51:21.761Z,22.40
2022-12-20T15:53:49.110Z,24.10
2022-12-20T15:56:21.826Z,20.00
2022-12-20T15:58:49.842Z,20.40
2022-12-20T16:01:23.154Z,25.83
2022-12-20T16:03:50.689Z,17.23
2022-12-20T16:06:18.379Z,16.60
2022-12-20T16:08:45.923Z,17.50
2022-12-20T16:11:28.223Z,16.07
2022-12-20T16:13:56.997Z,14.40
2022-12-20T16:16:28.992Z,14.43
2022-12-20T16:18:56.641Z,17.20
2022-12-20T16:21:30.897Z,16.10
2022-12-20T16:23:58.440Z,14.87
2022-12-20T16:26:26.801Z,15.97
2022-12-20T16:28:55.787Z,49.23
2022-12-20T16:31:30.986Z,28.00
2022-12-20T16:34:03.480Z,29.73
2022-12-20T16:36:31.411Z,17.90
2022-12-20T16:38:59.056Z,15.67
2022-12-20T16:41:28.530Z,14.20
2022-12-20T16:43:58.033Z,17.07
2022-12-20T16:46:27.543Z,13.13
2022-12-20T16:48:57.001Z,13.87
2022-12-20T16:51:40.427Z,12.63
2022-12-20T16:54:22.283Z,14.30
2022-12-20T16:56:56.774Z,12.80
2022-12-20T16:59:25.308Z,14.43
2022-12-20T17:01:55.271Z,18.80
2022-12-20T17:04:23.678Z,17.57
2022-12-20T17:06:51.286Z,20.33
2022-12-20T17:09:20.143Z,21.00
2022-12-20T17:11:50.196Z,22.10
2022-12-20T17:14:19.759Z,19.93
2022-12-20T17:16:47.285Z,18.07
2022-12-20T17:19:14.681Z,18.33
2022-12-20T17:24:32.475Z,16.90
2022-12-20T17:27:00.377Z,15.30
2022-12-20T17:29:27.923Z,14.67
2022-12-20T17:31:55.403Z,17.03
2022-12-20T17:34:24.993Z,16.53
2022-12-20T17:36:54.751Z,19.70
2022-12-20T17:39:22.749Z,18.70
2022-12-20T17:41:50.184Z,19.53
2022-12-20T17:44:18.975Z,19.93
2022-12-20T17:46:46.438Z,15.90
2022-12-20T17:49:14.159Z,16.03
2022-12-20T17:51:41.846Z,26.20
2022-12-20T17:54:18.532Z,23.83
2022-12-20T17:56:46.433Z,16.90
2022-12-20T17:59:14.726Z,16.47
2022-12-20T18:01:43.193Z,27.43
2022-12-20T18:04:13.741Z,25.90
2022-12-20T18:06:42.378Z,15.70
2022-12-20T18:09:27.959Z,36.87
2022-12-20T18:11:55.262Z,28.67
2022-12-20T18:14:22.648Z,31.97
2022-12-20T18:16:50.150Z,32.23
2022-12-20T18:19:18.606Z,23.00
2022-12-20T18:21:46.121Z,20.97
2022-12-20T18:24:14.722Z,25.10
2022-12-20T18:26:44.607Z,56.90
2022-12-20T18:29:12.165Z,24.30
2022-12-20T18:31:39.659Z,44.87
2022-12-20T18:34:07.514Z,50.53
2022-12-20T18:36:37.032Z,40.07
2022-12-20T18:39:06.426Z,45.57
2022-12-20T18:41:34.260Z,30.77
2022-12-20T18:44:03.611Z,20.97
2022-12-20T18:46:31.381Z,21.70
2022-12-20T18:49:00.618Z,18.80
2022-12-20T18:51:30.418Z,20.50
2022-12-20T18:53:58.681Z,18.07
2022-12-20T18:56:31.883Z,31.67
2022-12-20T18:59:07.884Z,22.10
2022-12-20T19:01:38.350Z,18.43
2022-12-20T19:04:07.545Z,13.63
2022-12-20T19:06:36.248Z,34.10
2022-12-20T19:09:06.184Z,23.43
2022-12-20T19:11:34.018Z,55.20
2022-12-20T19:14:01.599Z,53.00
2022-12-20T19:16:32.145Z,45.43
2022-12-20T19:19:00.850Z,39.53
2022-12-20T19:21:30.677Z,23.63
2022-12-20T19:24:00.326Z,18.00
2022-12-20T19:26:29.771Z,17.77
2022-12-20T19:28:57.790Z,18.07
2022-12-20T19:31:27.538Z,17.80
2022-12-20T19:34:00.343Z,21.57
2022-12-20T19:36:34.709Z,20.80
2022-12-20T19:39:05.500Z,17.77
2022-12-20T19:41:34.555Z,15.80
2022-12-20T19:44:02.640Z,30.50
2022-12-20T19:46:30.511Z,34.17
2022-12-20T19:48:59.332Z,32.00
2022-12-20T19:51:28.277Z,25.00
2022-12-20T19:53:56.986Z,30.00
2022-12-20T19:56:27.655Z,28.40
2022-12-20T19:58:55.629Z,28.90
2022-12-20T20:01:25.945Z,22.77
2022-12-20T20:03:58.660Z,17.30
2022-12-20T20:06:27.048Z,16.90
2022-12-20T20:08:57.584Z,18.13
2022-12-20T20:11:25.447Z,17.83
2022-12-20T20:13:52.856Z,18.40
2022-12-20T20:16:22.861Z,18.33
2022-12-20T20:18:50.687Z,16.93
2022-12-20T20:21:22.314Z,17.47
2022-12-20T20:23:54.091Z,14.30
2022-12-20T20:26:24.636Z,16.73
2022-12-20T20:28:52.391Z,14.47
2022-12-20T20:31:20.800Z,15.10
2022-12-20T20:33:48.278Z,15.17
2022-12-20T20:36:18.058Z,16.23
2022-12-20T20:38:45.734Z,25.53
2022-12-20T20:41:14.075Z,18.10
2022-12-20T20:43:41.738Z,18.17
2022-12-20T20:46:12.141Z,19.73
2022-12-20T20:48:40.329Z,19.77
2022-12-20T20:51:07.936Z,18.40
2022-12-20T20:53:35.838Z,17.03
2022-12-20T20:56:04.816Z,15.70
2022-12-20T20:58:32.984Z,27.50
2022-12-20T21:01:02.337Z,40.07
2022-12-20T21:03:30.927Z,24.20
2022-12-20T21:08:45.959Z,23.50
2022-12-20T21:11:13.593Z,18.80
2022-12-20T21:13:41.316Z,22.20
2022-12-20T21:16:16.053Z,23.67
2022-12-20T21:18:43.451Z,21.27
2022-12-20T21:21:12.521Z,25.83
2022-12-20T21:23:43.412Z,20.20
2022-12-20T21:26:10.781Z,17.90
2022-12-20T21:28:38.485Z,22.03
2022-12-20T21:31:09.638Z,20.00
2022-12-20T21:33:37.302Z,19.47
2022-12-20T21:36:13.921Z,52.10
2022-12-20T21:38:41.472Z,28.03
2022-12-20T21:41:12.364Z,18.53
2022-12-20T21:43:39.753Z,20.77
2022-12-20T21:46:11.392Z,21.57
2022-12-20T21:48:43.907Z,22.70
2022-12-20T21:51:15.324Z,14.23
2022-12-20T21:53:46.599Z,12.37
2022-12-20T21:56:15.875Z,24.00
2022-12-20T21:58:44.089Z,22.57
2022-12-20T22:01:14.354Z,19.07
2022-12-20T22:03:42.140Z,17.90
2022-12-20T22:06:10.681Z,22.00
2022-12-20T22:08:38.084Z,22.67
2022-12-20T22:11:07.564Z,24.73
2022-12-20T22:13:41.096Z,22.07
2022-12-20T22:16:11.396Z,21.53
2022-12-20T22:18:39.327Z,13.60
2022-12-20T22:21:09.351Z,12.20
2022-12-20T22:23:37.615Z,12.47
2022-12-20T22:26:07.577Z,19.50
2022-12-20T22:28:35.195Z,26.03
2022-12-20T22:31:10.573Z,27.23
2022-12-20T22:33:38.935Z,18.73
2022-12-20T22:36:07.697Z,19.30
2022-12-20T22:38:35.586Z,19.20
2022-12-20T22:41:09.823Z,18.27
2022-12-20T22:43:38.654Z,17.30
2022-12-20T22:46:06.268Z,16.40
2022-12-20T22:48:34.177Z,19.20
2022-12-20T22:51:03.861Z,38.87
2022-12-20T22:53:33.743Z,23.27
2022-12-20T22:56:02.530Z,20.97
2022-12-20T22:58:30.694Z,12.17
2022-12-20T23:01:03.427Z,17.67
2022-12-20T23:03:31.782Z,15.77
2022-12-20T23:06:01.678Z,15.97
2022-12-20T23:08:31.748Z,11.70
2022-12-20T23:11:17.818Z,17.33
2022-12-20T23:14:03.937Z,16.13
2022-12-20T23:16:31.413Z,13.67
2022-12-20T23:19:00.384Z,9.23
2022-12-20T23:21:47.309Z,11.73
2022-12-20T23:24:15.212Z,8.60
2022-12-20T23:26:43.365Z,8.90
2022-12-20T23:29:11.658Z,11.83
2022-12-20T23:31:39.003Z,14.13
2022-12-20T23:34:07.158Z,15.00
2022-12-20T23:36:34.853Z,10.50
2022-12-20T23:39:02.795Z,11.67
2022-12-20T23:41:30.220Z,12.23
2022-12-20T23:43:57.691Z,19.53
2022-12-20T23:46:25.754Z,15.80
2022-12-20T23:48:53.783Z,15.20
2022-12-20T23:51:22.081Z,16.63
2022-12-20T23:53:51.419Z,16.27
2022-12-20T23:56:21.051Z,14.80
2022-12-20T23:58:53.659Z,13.43
